sensor_id;sensor_type;location;lat;lon;timestamp;P1;durP1;ratioP1;P2;durP2;ratioP2
19095;SDS011;9680;52.520;13.332;2023-04-25T00:00:01;4.07;;;2.50;;
19095;SDS011;9680;52.520;13.332;2023-04-25T00:02:37;6.67;;;2.30;;
19095;SDS011;9680;52.520;13.332;2023-04-25T00:05:04;4.10;;;2.20;;
19095;SDS011;9680;52.520;13.332;2023-04-25T00:07:31;3.90;;;2.37;;
19095;SDS011;9680;52.520;13.332;2023-04-25T00:10:00;9.90;;;2.40;;
19095;SDS011;9680;52.520;13.332;2023-04-25T00:12:26;4.30;;;2.13;;
19095;SDS011;9680;52.520;13.332;2023-04-25T00:14:56;7.70;;;2.23;;
19095;SDS011;9680;52.520;13.332;2023-04-25T00:17:23;5.87;;;2.17;;
19095;SDS011;9680;52.520;13.332;2023-04-25T00:19:50;6.40;;;2.30;;
19095;SDS011;9680;52.520;13.332;2023-04-25T00:22:17;6.07;;;2.07;;
19095;SDS011;9680;52.520;13.332;2023-04-25T00:24:44;7.60;;;1.90;;
19095;SDS011;9680;52.520;13.332;2023-04-25T00:27:11;6.73;;;2.00;;
19095;SDS011;9680;52.520;13.332;2023-04-25T00:29:38;4.07;;;1.87;;
19095;SDS011;9680;52.520;13.332;2023-04-25T00:32:06;3.23;;;1.93;;
19095;SDS011;9680;52.520;13.332;2023-04-25T00:34:33;5.27;;;2.07;;
19095;SDS011;9680;52.520;13.332;2023-04-25T00:36:59;6.93;;;2.13;;
19095;SDS011;9680;52.520;13.332;2023-04-25T00:39:27;7.47;;;2.47;;
19095;SDS011;9680;52.520;13.332;2023-04-25T00:41:54;4.77;;;2.00;;
19095;SDS011;9680;52.520;13.332;2023-04-25T00:44:21;5.97;;;2.40;;
19095;SDS011;9680;52.520;13.332;2023-04-25T00:46:48;4.87;;;1.90;;
19095;SDS011;9680;52.520;13.332;2023-04-25T00:49:17;6.10;;;2.20;;
19095;SDS011;9680;52.520;13.332;2023-04-25T00:51:44;5.33;;;2.00;;
19095;SDS011;9680;52.520;13.332;2023-04-25T00:54:11;4.80;;;2.23;;
19095;SDS011;9680;52.520;13.332;2023-04-25T00:56:38;6.77;;;2.20;;
19095;SDS011;9680;52.520;13.332;2023-04-25T00:59:05;6.13;;;2.20;;
19095;SDS011;9680;52.520;13.332;2023-04-25T01:01:33;3.80;;;2.37;;
19095;SDS011;9680;52.520;13.332;2023-04-25T01:04:00;6.73;;;2.27;;
19095;SDS011;9680;52.520;13.332;2023-04-25T01:06:29;7.97;;;2.60;;
19095;SDS011;9680;52.520;13.332;2023-04-25T01:08:56;6.70;;;2.10;;
19095;SDS011;9680;52.520;13.332;2023-04-25T01:11:23;5.30;;;2.10;;
19095;SDS011;9680;52.520;13.332;2023-04-25T01:13:49;7.83;;;2.23;;
19095;SDS011;9680;52.520;13.332;2023-04-25T01:16:16;4.23;;;2.23;;
19095;SDS011;9680;52.520;13.332;2023-04-25T01:18:43;4.97;;;2.40;;
19095;SDS011;9680;52.520;13.332;2023-04-25T01:21:13;7.07;;;2.33;;
19095;SDS011;9680;52.520;13.332;2023-04-25T01:23:40;5.43;;;2.10;;
19095;SDS011;9680;52.520;13.332;2023-04-25T01:26:07;4.47;;;2.10;;
19095;SDS011;9680;52.520;13.332;2023-04-25T01:28:36;8.10;;;2.40;;
19095;SDS011;9680;52.520;13.332;2023-04-25T01:31:04;6.03;;;2.37;;
19095;SDS011;9680;52.520;13.332;2023-04-25T01:33:32;5.57;;;2.10;;
19095;SDS011;9680;52.520;13.332;2023-04-25T01:35:59;4.90;;;2.37;;
19095;SDS011;9680;52.520;13.332;2023-04-25T01:38:27;10.33;;;2.37;;
19095;SDS011;9680;52.520;13.332;2023-04-25T01:40:55;6.73;;;2.40;;
19095;SDS011;9680;52.520;13.332;2023-04-25T01:43:22;8.20;;;2.27;;
19095;SDS011;9680;52.520;13.332;2023-04-25T01:45:49;4.87;;;2.00;;
19095;SDS011;9680;52.520;13.332;2023-04-25T01:48:17;5.20;;;2.57;;
19095;SDS011;9680;52.520;13.332;2023-04-25T01:50:45;4.90;;;2.30;;
19095;SDS011;9680;52.520;13.332;2023-04-25T01:53:12;6.20;;;2.50;;
19095;SDS011;9680;52.520;13.332;2023-04-25T01:55:43;4.87;;;2.23;;
19095;SDS011;9680;52.520;13.332;2023-04-25T01:58:13;6.47;;;2.70;;
19095;SDS011;9680;52.520;13.332;2023-04-25T02:01:03;7.70;;;2.60;;
19095;SDS011;9680;52.520;13.332;2023-04-25T02:03:38;7.13;;;2.70;;
19095;SDS011;9680;52.520;13.332;2023-04-25T02:06:09;7.77;;;2.83;;
19095;SDS011;9680;52.520;13.332;2023-04-25T02:08:41;5.00;;;2.47;;
19095;SDS011;9680;52.520;13.332;2023-04-25T02:11:12;6.67;;;2.63;;
19095;SDS011;9680;52.520;13.332;2023-04-25T02:14:14;5.47;;;2.40;;
19095;SDS011;9680;52.520;13.332;2023-04-25T02:16:54;7.77;;;2.80;;
19095;SDS011;9680;52.520;13.332;2023-04-25T02:19:21;7.93;;;2.73;;
19095;SDS011;9680;52.520;13.332;2023-04-25T02:21:48;8.60;;;2.90;;
19095;SDS011;9680;52.520;13.332;2023-04-25T02:24:15;8.20;;;2.83;;
19095;SDS011;9680;52.520;13.332;2023-04-25T02:26:43;5.37;;;2.47;;
19095;SDS011;9680;52.520;13.332;2023-04-25T02:29:12;8.47;;;3.23;;
19095;SDS011;9680;52.520;13.332;2023-04-25T02:31:41;8.00;;;2.83;;
19095;SDS011;9680;52.520;13.332;2023-04-25T02:34:08;5.87;;;2.80;;
19095;SDS011;9680;52.520;13.332;2023-04-25T02:36:36;7.97;;;3.00;;
19095;SDS011;9680;52.520;13.332;2023-04-25T02:39:03;7.20;;;3.03;;
19095;SDS011;9680;52.520;13.332;2023-04-25T02:41:30;5.53;;;2.87;;
19095;SDS011;9680;52.520;13.332;2023-04-25T02:43:58;8.60;;;3.30;;
19095;SDS011;9680;52.520;13.332;2023-04-25T02:46:25;10.13;;;3.20;;
19095;SDS011;9680;52.520;13.332;2023-04-25T02:48:51;9.33;;;3.27;;
19095;SDS011;9680;52.520;13.332;2023-04-25T02:51:18;5.93;;;2.93;;
19095;SDS011;9680;52.520;13.332;2023-04-25T02:53:45;7.53;;;3.00;;
19095;SDS011;9680;52.520;13.332;2023-04-25T02:56:12;9.30;;;3.33;;
19095;SDS011;9680;52.520;13.332;2023-04-25T02:58:39;7.90;;;3.00;;
19095;SDS011;9680;52.520;13.332;2023-04-25T03:01:07;6.77;;;3.00;;
19095;SDS011;9680;52.520;13.332;2023-04-25T03:03:33;7.10;;;3.20;;
19095;SDS011;9680;52.520;13.332;2023-04-25T03:06:00;7.77;;;3.37;;
19095;SDS011;9680;52.520;13.332;2023-04-25T03:08:30;7.43;;;3.10;;
19095;SDS011;9680;52.520;13.332;2023-04-25T03:11:00;5.80;;;2.90;;
19095;SDS011;9680;52.520;13.332;2023-04-25T03:13:27;8.70;;;3.17;;
19095;SDS011;9680;52.520;13.332;2023-04-25T03:15:56;7.00;;;3.03;;
19095;SDS011;9680;52.520;13.332;2023-04-25T03:18:24;6.27;;;3.20;;
19095;SDS011;9680;52.520;13.332;2023-04-25T03:20:51;7.03;;;3.33;;
19095;SDS011;9680;52.520;13.332;2023-04-25T03:23:17;7.57;;;3.53;;
19095;SDS011;9680;52.520;13.332;2023-04-25T03:25:44;6.77;;;3.20;;
19095;SDS011;9680;52.520;13.332;2023-04-25T03:28:11;6.73;;;3.33;;
19095;SDS011;9680;52.520;13.332;2023-04-25T03:30:38;7.10;;;3.17;;
19095;SDS011;9680;52.520;13.332;2023-04-25T03:33:05;7.83;;;3.50;;
19095;SDS011;9680;52.520;13.332;2023-04-25T03:35:33;9.63;;;3.60;;
19095;SDS011;9680;52.520;13.332;2023-04-25T03:38:00;8.20;;;3.37;;
19095;SDS011;9680;52.520;13.332;2023-04-25T03:40:31;9.90;;;3.47;;
19095;SDS011;9680;52.520;13.332;2023-04-25T03:43:15;8.93;;;3.80;;
19095;SDS011;9680;52.520;13.332;2023-04-25T03:45:48;8.00;;;3.40;;
19095;SDS011;9680;52.520;13.332;2023-04-25T03:48:19;7.90;;;3.30;;
19095;SDS011;9680;52.520;13.332;2023-04-25T03:50:48;10.53;;;3.30;;
19095;SDS011;9680;52.520;13.332;2023-04-25T03:53:15;8.13;;;3.17;;
19095;SDS011;9680;52.520;13.332;2023-04-25T03:56:01;7.00;;;3.30;;
19095;SDS011;9680;52.520;13.332;2023-04-25T03:58:31;6.30;;;3.20;;
19095;SDS011;9680;52.520;13.332;2023-04-25T04:00:58;8.00;;;3.13;;
19095;SDS011;9680;52.520;13.332;2023-04-25T04:03:25;6.80;;;3.17;;
19095;SDS011;9680;52.520;13.332;2023-04-25T04:05:54;10.97;;;3.60;;
19095;SDS011;9680;52.520;13.332;2023-04-25T04:08:21;13.03;;;3.47;;
19095;SDS011;9680;52.520;13.332;2023-04-25T04:10:47;10.17;;;3.43;;
19095;SDS011;9680;52.520;13.332;2023-04-25T04:13:14;6.33;;;3.00;;
19095;SDS011;9680;52.520;13.332;2023-04-25T04:15:41;7.37;;;3.40;;
19095;SDS011;9680;52.520;13.332;2023-04-25T04:18:08;8.70;;;3.27;;
19095;SDS011;9680;52.520;13.332;2023-04-25T04:20:35;7.57;;;3.20;;
19095;SDS011;9680;52.520;13.332;2023-04-25T04:23:03;8.37;;;3.40;;
19095;SDS011;9680;52.520;13.332;2023-04-25T04:25:30;10.77;;;3.37;;
19095;SDS011;9680;52.520;13.332;2023-04-25T04:28:07;9.57;;;3.10;;
19095;SDS011;9680;52.520;13.332;2023-04-25T04:30:53;8.73;;;3.20;;
19095;SDS011;9680;52.520;13.332;2023-04-25T04:33:20;7.23;;;3.00;;
19095;SDS011;9680;52.520;13.332;2023-04-25T04:35:54;12.20;;;3.93;;
19095;SDS011;9680;52.520;13.332;2023-04-25T04:38:23;7.03;;;2.70;;
19095;SDS011;9680;52.520;13.332;2023-04-25T04:40:52;10.10;;;3.40;;
19095;SDS011;9680;52.520;13.332;2023-04-25T04:43:37;7.43;;;2.63;;
19095;SDS011;9680;52.520;13.332;2023-04-25T04:46:23;6.57;;;2.93;;
19095;SDS011;9680;52.520;13.332;2023-04-25T04:49:10;10.83;;;3.07;;
19095;SDS011;9680;52.520;13.332;2023-04-25T04:52:14;11.83;;;3.67;;
19095;SDS011;9680;52.520;13.332;2023-04-25T04:54:56;9.03;;;3.00;;
19095;SDS011;9680;52.520;13.332;2023-04-25T04:57:33;10.40;;;3.10;;
19095;SDS011;9680;52.520;13.332;2023-04-25T05:00:29;6.53;;;3.07;;
19095;SDS011;9680;52.520;13.332;2023-04-25T05:03:29;12.50;;;3.97;;
19095;SDS011;9680;52.520;13.332;2023-04-25T05:06:25;8.87;;;3.33;;
19095;SDS011;9680;52.520;13.332;2023-04-25T05:09:24;8.47;;;3.27;;
19095;SDS011;9680;52.520;13.332;2023-04-25T05:12:22;9.20;;;3.23;;
19095;SDS011;9680;52.520;13.332;2023-04-25T05:15:09;9.33;;;3.20;;
19095;SDS011;9680;52.520;13.332;2023-04-25T05:17:51;9.33;;;3.50;;
19095;SDS011;9680;52.520;13.332;2023-04-25T05:20:24;8.27;;;3.13;;
19095;SDS011;9680;52.520;13.332;2023-04-25T05:23:12;8.93;;;3.20;;
19095;SDS011;9680;52.520;13.332;2023-04-25T05:25:58;7.40;;;2.80;;
19095;SDS011;9680;52.520;13.332;2023-04-25T05:28:47;7.47;;;2.80;;
19095;SDS011;9680;52.520;13.332;2023-04-25T05:31:35;6.77;;;2.80;;
19095;SDS011;9680;52.520;13.332;2023-04-25T05:34:12;9.37;;;3.47;;
19095;SDS011;9680;52.520;13.332;2023-04-25T05:36:52;10.07;;;3.40;;
19095;SDS011;9680;52.520;13.332;2023-04-25T05:39:19;8.20;;;3.40;;
19095;SDS011;9680;52.520;13.332;2023-04-25T05:42:19;7.00;;;3.13;;
19095;SDS011;9680;52.520;13.332;2023-04-25T05:44:59;9.53;;;3.47;;
19095;SDS011;9680;52.520;13.332;2023-04-25T05:47:35;9.93;;;3.50;;
19095;SDS011;9680;52.520;13.332;2023-04-25T05:50:25;7.60;;;3.47;;
19095;SDS011;9680;52.520;13.332;2023-04-25T05:53:02;12.17;;;4.10;;
19095;SDS011;9680;52.520;13.332;2023-04-25T05:55:42;8.97;;;4.00;;
19095;SDS011;9680;52.520;13.332;2023-04-25T05:58:24;10.00;;;3.93;;
19095;SDS011;9680;52.520;13.332;2023-04-25T06:00:53;13.03;;;4.47;;
19095;SDS011;9680;52.520;13.332;2023-04-25T06:03:24;13.80;;;4.40;;
19095;SDS011;9680;52.520;13.332;2023-04-25T06:05:56;8.00;;;3.90;;
19095;SDS011;9680;52.520;13.332;2023-04-25T06:08:37;11.57;;;4.20;;
19095;SDS011;9680;52.520;13.332;2023-04-25T06:11:04;12.17;;;3.87;;
19095;SDS011;9680;52.520;13.332;2023-04-25T06:13:31;16.77;;;3.97;;
19095;SDS011;9680;52.520;13.332;2023-04-25T06:15:59;7.97;;;3.83;;
19095;SDS011;9680;52.520;13.332;2023-04-25T06:18:26;10.50;;;3.87;;
19095;SDS011;9680;52.520;13.332;2023-04-25T06:20:53;9.53;;;3.93;;
19095;SDS011;9680;52.520;13.332;2023-04-25T06:23:21;14.60;;;4.03;;
19095;SDS011;9680;52.520;13.332;2023-04-25T06:25:56;11.07;;;3.90;;
19095;SDS011;9680;52.520;13.332;2023-04-25T06:28:28;10.03;;;4.20;;
19095;SDS011;9680;52.520;13.332;2023-04-25T06:30:55;15.37;;;4.50;;
19095;SDS011;9680;52.520;13.332;2023-04-25T06:33:23;12.50;;;4.43;;
19095;SDS011;9680;52.520;13.332;2023-04-25T06:35:51;10.13;;;3.93;;
19095;SDS011;9680;52.520;13.332;2023-04-25T06:38:22;9.73;;;3.70;;
19095;SDS011;9680;52.520;13.332;2023-04-25T06:40:51;10.63;;;4.10;;
19095;SDS011;9680;52.520;13.332;2023-04-25T06:43:18;12.80;;;3.90;;
19095;SDS011;9680;52.520;13.332;2023-04-25T06:46:17;10.27;;;4.20;;
19095;SDS011;9680;52.520;13.332;2023-04-25T06:48:47;10.27;;;3.93;;
19095;SDS011;9680;52.520;13.332;2023-04-25T06:51:16;9.10;;;4.10;;
19095;SDS011;9680;52.520;13.332;2023-04-25T06:53:44;10.53;;;3.77;;
19095;SDS011;9680;52.520;13.332;2023-04-25T06:56:21;10.27;;;3.93;;
19095;SDS011;9680;52.520;13.332;2023-04-25T06:59:14;8.20;;;3.63;;
19095;SDS011;9680;52.520;13.332;2023-04-25T07:01:43;8.27;;;3.87;;
19095;SDS011;9680;52.520;13.332;2023-04-25T07:04:16;14.20;;;3.90;;
19095;SDS011;9680;52.520;13.332;2023-04-25T07:06:55;10.57;;;3.57;;
19095;SDS011;9680;52.520;13.332;2023-04-25T07:09:30;9.00;;;3.60;;
19095;SDS011;9680;52.520;13.332;2023-04-25T07:11:59;13.03;;;3.80;;
19095;SDS011;9680;52.520;13.332;2023-04-25T07:14:26;6.17;;;3.27;;
19095;SDS011;9680;52.520;13.332;2023-04-25T07:16:53;13.80;;;3.53;;
19095;SDS011;9680;52.520;13.332;2023-04-25T07:19:24;11.73;;;3.83;;
19095;SDS011;9680;52.520;13.332;2023-04-25T07:21:54;9.73;;;3.87;;
19095;SDS011;9680;52.520;13.332;2023-04-25T07:24:21;7.23;;;3.30;;
19095;SDS011;9680;52.520;13.332;2023-04-25T07:26:48;6.13;;;3.33;;
19095;SDS011;9680;52.520;13.332;2023-04-25T07:29:25;7.80;;;3.63;;
19095;SDS011;9680;52.520;13.332;2023-04-25T07:31:52;8.90;;;3.13;;
19095;SDS011;9680;52.520;13.332;2023-04-25T07:34:20;10.30;;;3.53;;
19095;SDS011;9680;52.520;13.332;2023-04-25T07:36:49;10.60;;;3.20;;
19095;SDS011;9680;52.520;13.332;2023-04-25T07:39:16;11.17;;;3.57;;
19095;SDS011;9680;52.520;13.332;2023-04-25T07:41:43;9.63;;;3.43;;
19095;SDS011;9680;52.520;13.332;2023-04-25T07:44:16;15.17;;;3.10;;
19095;SDS011;9680;52.520;13.332;2023-04-25T07:46:43;8.80;;;2.70;;
19095;SDS011;9680;52.520;13.332;2023-04-25T07:49:13;15.87;;;3.70;;
19095;SDS011;9680;52.520;13.332;2023-04-25T07:51:42;13.40;;;3.90;;
19095;SDS011;9680;52.520;13.332;2023-04-25T07:54:14;9.60;;;2.93;;
19095;SDS011;9680;52.520;13.332;2023-04-25T07:56:46;17.93;;;2.93;;
19095;SDS011;9680;52.520;13.332;2023-04-25T07:59:13;17.40;;;3.40;;
19095;SDS011;9680;52.520;13.332;2023-04-25T08:01:41;14.87;;;3.07;;
19095;SDS011;9680;52.520;13.332;2023-04-25T08:04:09;12.77;;;3.13;;
19095;SDS011;9680;52.520;13.332;2023-04-25T08:06:50;17.87;;;2.70;;
19095;SDS011;9680;52.520;13.332;2023-04-25T08:09:24;14.63;;;2.90;;
19095;SDS011;9680;52.520;13.332;2023-04-25T08:11:52;11.27;;;2.63;;
19095;SDS011;9680;52.520;13.332;2023-04-25T08:14:25;18.90;;;2.93;;
19095;SDS011;9680;52.520;13.332;2023-04-25T08:16:51;15.33;;;3.03;;
19095;SDS011;9680;52.520;13.332;2023-04-25T08:19:19;18.47;;;3.00;;
19095;SDS011;9680;52.520;13.332;2023-04-25T08:21:46;10.33;;;2.90;;
19095;SDS011;9680;52.520;13.332;2023-04-25T08:24:18;16.30;;;3.20;;
19095;SDS011;9680;52.520;13.332;2023-04-25T08:26:46;11.73;;;2.97;;
19095;SDS011;9680;52.520;13.332;2023-04-25T08:29:16;13.87;;;3.60;;
19095;SDS011;9680;52.520;13.332;2023-04-25T08:31:43;17.40;;;2.93;;
19095;SDS011;9680;52.520;13.332;2023-04-25T08:34:11;14.87;;;2.80;;
19095;SDS011;9680;52.520;13.332;2023-04-25T08:36:47;11.40;;;3.07;;
19095;SDS011;9680;52.520;13.332;2023-04-25T08:39:37;11.38;;;2.50;;
19095;SDS011;9680;52.520;13.332;2023-04-25T08:42:29;12.33;;;2.23;;
19095;SDS011;9680;52.520;13.332;2023-04-25T08:45:00;13.50;;;2.83;;
19095;SDS011;9680;52.520;13.332;2023-04-25T08:47:32;15.40;;;2.70;;
19095;SDS011;9680;52.520;13.332;2023-04-25T08:50:00;9.60;;;2.33;;
19095;SDS011;9680;52.520;13.332;2023-04-25T08:52:32;19.07;;;2.57;;
19095;SDS011;9680;52.520;13.332;2023-04-25T08:55:03;10.23;;;2.50;;
19095;SDS011;9680;52.520;13.332;2023-04-25T08:57:35;14.83;;;2.30;;
19095;SDS011;9680;52.520;13.332;2023-04-25T09:00:03;13.90;;;1.93;;
19095;SDS011;9680;52.520;13.332;2023-04-25T09:02:34;11.60;;;2.20;;
19095;SDS011;9680;52.520;13.332;2023-04-25T09:05:02;11.73;;;2.20;;
19095;SDS011;9680;52.520;13.332;2023-04-25T09:07:30;13.23;;;2.20;;
19095;SDS011;9680;52.520;13.332;2023-04-25T09:09:56;14.52;;;1.80;;
19095;SDS011;9680;52.520;13.332;2023-04-25T09:12:24;9.20;;;2.20;;
19095;SDS011;9680;52.520;13.332;2023-04-25T09:15:05;8.57;;;1.93;;
19095;SDS011;9680;52.520;13.332;2023-04-25T09:17:45;7.87;;;2.00;;
19095;SDS011;9680;52.520;13.332;2023-04-25T09:20:13;9.48;;;2.50;;
19095;SDS011;9680;52.520;13.332;2023-04-25T09:22:40;13.57;;;2.33;;
19095;SDS011;9680;52.520;13.332;2023-04-25T09:25:08;31.58;;;3.95;;
19095;SDS011;9680;52.520;13.332;2023-04-25T09:27:42;10.00;;;2.08;;
19095;SDS011;9680;52.520;13.332;2023-04-25T09:30:29;7.30;;;1.80;;
19095;SDS011;9680;52.520;13.332;2023-04-25T09:33:10;8.30;;;2.10;;
19095;SDS011;9680;52.520;13.332;2023-04-25T09:35:41;15.10;;;2.45;;
19095;SDS011;9680;52.520;13.332;2023-04-25T09:38:21;10.40;;;1.88;;
19095;SDS011;9680;52.520;13.332;2023-04-25T09:40:56;35.20;;;3.35;;
19095;SDS011;9680;52.520;13.332;2023-04-25T09:43:34;8.27;;;1.85;;
19095;SDS011;9680;52.520;13.332;2023-04-25T09:46:02;4.25;;;1.67;;
19095;SDS011;9680;52.520;13.332;2023-04-25T09:48:37;7.72;;;1.90;;
19095;SDS011;9680;52.520;13.332;2023-04-25T09:51:07;13.45;;;2.20;;
19095;SDS011;9680;52.520;13.332;2023-04-25T09:53:36;10.32;;;1.85;;
19095;SDS011;9680;52.520;13.332;2023-04-25T09:56:30;9.93;;;1.80;;
19095;SDS011;9680;52.520;13.332;2023-04-25T09:59:03;8.20;;;1.65;;
19095;SDS011;9680;52.520;13.332;2023-04-25T10:01:35;8.18;;;2.45;;
19095;SDS011;9680;52.520;13.332;2023-04-25T10:04:24;8.23;;;1.75;;
19095;SDS011;9680;52.520;13.332;2023-04-25T10:07:19;5.60;;;1.80;;
19095;SDS011;9680;52.520;13.332;2023-04-25T10:09:51;7.85;;;1.67;;
19095;SDS011;9680;52.520;13.332;2023-04-25T10:12:24;11.25;;;1.90;;
19095;SDS011;9680;52.520;13.332;2023-04-25T10:14:52;6.35;;;1.70;;
19095;SDS011;9680;52.520;13.332;2023-04-25T10:17:22;9.90;;;1.95;;
19095;SDS011;9680;52.520;13.332;2023-04-25T10:19:49;7.72;;;1.90;;
19095;SDS011;9680;52.520;13.332;2023-04-25T10:22:18;5.63;;;1.88;;
19095;SDS011;9680;52.520;13.332;2023-04-25T10:24:50;7.10;;;1.85;;
19095;SDS011;9680;52.520;13.332;2023-04-25T10:27:17;8.55;;;2.00;;
19095;SDS011;9680;52.520;13.332;2023-04-25T10:29:44;10.15;;;2.00;;
19095;SDS011;9680;52.520;13.332;2023-04-25T10:32:11;12.32;;;2.35;;
19095;SDS011;9680;52.520;13.332;2023-04-25T10:34:40;11.32;;;2.67;;
19095;SDS011;9680;52.520;13.332;2023-04-25T10:37:09;10.32;;;2.00;;
19095;SDS011;9680;52.520;13.332;2023-04-25T10:39:37;12.70;;;2.47;;
19095;SDS011;9680;52.520;13.332;2023-04-25T10:42:05;8.10;;;1.90;;
19095;SDS011;9680;52.520;13.332;2023-04-25T10:44:33;8.70;;;1.80;;
19095;SDS011;9680;52.520;13.332;2023-04-25T10:47:00;11.35;;;2.00;;
19095;SDS011;9680;52.520;13.332;2023-04-25T10:49:31;7.45;;;1.75;;
19095;SDS011;9680;52.520;13.332;2023-04-25T10:52:13;7.07;;;2.42;;
19095;SDS011;9680;52.520;13.332;2023-04-25T10:54:42;7.63;;;1.75;;
19095;SDS011;9680;52.520;13.332;2023-04-25T10:57:28;5.63;;;1.85;;
19095;SDS011;9680;52.520;13.332;2023-04-25T10:59:58;6.00;;;1.65;;
19095;SDS011;9680;52.520;13.332;2023-04-25T11:02:31;8.90;;;1.92;;
19095;SDS011;9680;52.520;13.332;2023-04-25T11:04:58;4.85;;;1.52;;
19095;SDS011;9680;52.520;13.332;2023-04-25T11:07:31;11.18;;;1.70;;
19095;SDS011;9680;52.520;13.332;2023-04-25T11:10:04;6.15;;;1.80;;
19095;SDS011;9680;52.520;13.332;2023-04-25T11:12:31;6.80;;;1.83;;
19095;SDS011;9680;52.520;13.332;2023-04-25T11:14:59;7.10;;;1.90;;
19095;SDS011;9680;52.520;13.332;2023-04-25T11:17:27;8.68;;;1.70;;
19095;SDS011;9680;52.520;13.332;2023-04-25T11:19:54;8.10;;;1.47;;
19095;SDS011;9680;52.520;13.332;2023-04-25T11:22:22;9.50;;;2.17;;
19095;SDS011;9680;52.520;13.332;2023-04-25T11:24:51;16.33;;;2.53;;
19095;SDS011;9680;52.520;13.332;2023-04-25T11:27:17;8.23;;;2.20;;
19095;SDS011;9680;52.520;13.332;2023-04-25T11:29:45;8.17;;;1.60;;
19095;SDS011;9680;52.520;13.332;2023-04-25T11:32:13;11.87;;;1.60;;
19095;SDS011;9680;52.520;13.332;2023-04-25T11:34:42;5.32;;;1.75;;
19095;SDS011;9680;52.520;13.332;2023-04-25T11:37:10;12.07;;;1.73;;
19095;SDS011;9680;52.520;13.332;2023-04-25T11:39:42;9.70;;;1.73;;
19095;SDS011;9680;52.520;13.332;2023-04-25T11:42:12;8.18;;;1.50;;
19095;SDS011;9680;52.520;13.332;2023-04-25T11:44:39;4.43;;;1.27;;
19095;SDS011;9680;52.520;13.332;2023-04-25T11:47:06;5.35;;;1.50;;
19095;SDS011;9680;52.520;13.332;2023-04-25T11:49:33;6.85;;;1.55;;
19095;SDS011;9680;52.520;13.332;2023-04-25T11:52:01;6.22;;;1.60;;
19095;SDS011;9680;52.520;13.332;2023-04-25T11:54:28;6.20;;;1.58;;
19095;SDS011;9680;52.520;13.332;2023-04-25T11:56:54;5.95;;;1.80;;
19095;SDS011;9680;52.520;13.332;2023-04-25T11:59:24;7.72;;;1.48;;
19095;SDS011;9680;52.520;13.332;2023-04-25T12:01:52;12.80;;;1.85;;
19095;SDS011;9680;52.520;13.332;2023-04-25T12:04:20;10.45;;;2.42;;
19095;SDS011;9680;52.520;13.332;2023-04-25T12:06:48;6.13;;;1.70;;
19095;SDS011;9680;52.520;13.332;2023-04-25T12:09:16;6.53;;;1.80;;
19095;SDS011;9680;52.520;13.332;2023-04-25T12:11:46;9.15;;;1.80;;
19095;SDS011;9680;52.520;13.332;2023-04-25T12:14:20;10.82;;;1.77;;
19095;SDS011;9680;52.520;13.332;2023-04-25T12:16:50;8.23;;;1.90;;
19095;SDS011;9680;52.520;13.332;2023-04-25T12:19:18;6.25;;;1.70;;
19095;SDS011;9680;52.520;13.332;2023-04-25T12:21:46;6.53;;;1.60;;
19095;SDS011;9680;52.520;13.332;2023-04-25T12:24:14;6.18;;;1.40;;
19095;SDS011;9680;52.520;13.332;2023-04-25T12:26:48;8.48;;;2.15;;
19095;SDS011;9680;52.520;13.332;2023-04-25T12:29:21;8.02;;;1.67;;
19095;SDS011;9680;52.520;13.332;2023-04-25T12:31:51;7.78;;;1.90;;
19095;SDS011;9680;52.520;13.332;2023-04-25T12:34:18;5.78;;;1.58;;
19095;SDS011;9680;52.520;13.332;2023-04-25T12:36:45;5.53;;;1.80;;
19095;SDS011;9680;52.520;13.332;2023-04-25T12:39:15;6.80;;;1.58;;
19095;SDS011;9680;52.520;13.332;2023-04-25T12:41:43;7.65;;;1.88;;
19095;SDS011;9680;52.520;13.332;2023-04-25T12:44:10;7.30;;;1.73;;
19095;SDS011;9680;52.520;13.332;2023-04-25T12:46:37;6.55;;;1.88;;
19095;SDS011;9680;52.520;13.332;2023-04-25T12:49:07;5.88;;;1.55;;
19095;SDS011;9680;52.520;13.332;2023-04-25T12:51:34;10.57;;;1.45;;
19095;SDS011;9680;52.520;13.332;2023-04-25T12:54:01;8.27;;;1.83;;
19095;SDS011;9680;52.520;13.332;2023-04-25T12:56:29;7.07;;;1.50;;
19095;SDS011;9680;52.520;13.332;2023-04-25T12:58:56;7.57;;;1.48;;
19095;SDS011;9680;52.520;13.332;2023-04-25T13:01:23;3.92;;;1.50;;
19095;SDS011;9680;52.520;13.332;2023-04-25T13:03:50;9.50;;;1.48;;
19095;SDS011;9680;52.520;13.332;2023-04-25T13:06:19;4.68;;;1.48;;
19095;SDS011;9680;52.520;13.332;2023-04-25T13:08:47;4.15;;;1.52;;
19095;SDS011;9680;52.520;13.332;2023-04-25T13:11:14;3.40;;;1.20;;
19095;SDS011;9680;52.520;13.332;2023-04-25T13:13:41;5.72;;;1.15;;
19095;SDS011;9680;52.520;13.332;2023-04-25T13:16:07;2.40;;;1.10;;
19095;SDS011;9680;52.520;13.332;2023-04-25T13:18:34;6.95;;;1.00;;
19095;SDS011;9680;52.520;13.332;2023-04-25T13:21:02;6.07;;;1.23;;
19095;SDS011;9680;52.520;13.332;2023-04-25T13:23:30;4.75;;;1.02;;
19095;SDS011;9680;52.520;13.332;2023-04-25T13:25:57;5.82;;;1.30;;
19095;SDS011;9680;52.520;13.332;2023-04-25T13:28:24;5.60;;;1.30;;
19095;SDS011;9680;52.520;13.332;2023-04-25T13:30:51;6.93;;;1.33;;
19095;SDS011;9680;52.520;13.332;2023-04-25T13:33:17;6.30;;;1.17;;
19095;SDS011;9680;52.520;13.332;2023-04-25T13:35:45;3.80;;;1.20;;
19095;SDS011;9680;52.520;13.332;2023-04-25T13:38:18;5.95;;;1.38;;
19095;SDS011;9680;52.520;13.332;2023-04-25T13:40:47;3.85;;;1.27;;
19095;SDS011;9680;52.520;13.332;2023-04-25T13:43:14;7.13;;;2.08;;
19095;SDS011;9680;52.520;13.332;2023-04-25T13:45:41;8.23;;;1.60;;
19095;SDS011;9680;52.520;13.332;2023-04-25T13:48:08;5.65;;;1.60;;
19095;SDS011;9680;52.520;13.332;2023-04-25T13:50:35;5.28;;;1.35;;
19095;SDS011;9680;52.520;13.332;2023-04-25T13:53:01;6.20;;;1.60;;
19095;SDS011;9680;52.520;13.332;2023-04-25T13:55:28;5.75;;;1.60;;
19095;SDS011;9680;52.520;13.332;2023-04-25T13:57:56;5.15;;;2.30;;
19095;SDS011;9680;52.520;13.332;2023-04-25T14:00:23;4.50;;;1.65;;
19095;SDS011;9680;52.520;13.332;2023-04-25T14:02:50;4.97;;;1.60;;
19095;SDS011;9680;52.520;13.332;2023-04-25T14:05:18;8.07;;;1.67;;
19095;SDS011;9680;52.520;13.332;2023-04-25T14:07:45;3.20;;;1.10;;
19095;SDS011;9680;52.520;13.332;2023-04-25T14:10:12;5.85;;;1.35;;
19095;SDS011;9680;52.520;13.332;2023-04-25T14:12:39;4.97;;;1.60;;
19095;SDS011;9680;52.520;13.332;2023-04-25T14:15:07;11.93;;;1.92;;
19095;SDS011;9680;52.520;13.332;2023-04-25T14:17:34;5.13;;;1.50;;
19095;SDS011;9680;52.520;13.332;2023-04-25T14:20:01;6.55;;;1.60;;
19095;SDS011;9680;52.520;13.332;2023-04-25T14:22:30;5.15;;;1.48;;
19095;SDS011;9680;52.520;13.332;2023-04-25T14:24:57;6.63;;;1.42;;
19095;SDS011;9680;52.520;13.332;2023-04-25T14:27:24;5.35;;;1.33;;
19095;SDS011;9680;52.520;13.332;2023-04-25T14:29:51;4.07;;;1.15;;
19095;SDS011;9680;52.520;13.332;2023-04-25T14:32:19;9.55;;;2.00;;
19095;SDS011;9680;52.520;13.332;2023-04-25T14:34:46;2.90;;;1.30;;
19095;SDS011;9680;52.520;13.332;2023-04-25T14:37:13;8.82;;;1.50;;
19095;SDS011;9680;52.520;13.332;2023-04-25T14:39:41;4.22;;;1.17;;
19095;SDS011;9680;52.520;13.332;2023-04-25T14:42:08;3.90;;;1.10;;
19095;SDS011;9680;52.520;13.332;2023-04-25T14:44:36;5.70;;;1.30;;
19095;SDS011;9680;52.520;13.332;2023-04-25T14:47:03;7.78;;;1.45;;
19095;SDS011;9680;52.520;13.332;2023-04-25T14:49:31;6.35;;;1.45;;
19095;SDS011;9680;52.520;13.332;2023-04-25T14:51:58;4.38;;;1.40;;
19095;SDS011;9680;52.520;13.332;2023-04-25T14:54:26;8.02;;;1.35;;
19095;SDS011;9680;52.520;13.332;2023-04-25T14:56:52;4.65;;;1.20;;
19095;SDS011;9680;52.520;13.332;2023-04-25T14:59:19;4.78;;;1.50;;
19095;SDS011;9680;52.520;13.332;2023-04-25T15:01:46;8.43;;;1.60;;
19095;SDS011;9680;52.520;13.332;2023-04-25T15:04:14;6.40;;;1.40;;